Time;durP1;ratioP1;P1;durP2;ratioP2;P2;SDS_P1;SDS_P2;PMS_P1;PMS_P2;Temp;Humidity;BMP_temperature;BMP_pressure;BME280_temperature;BME280_humidity;BME280_pressure;Samples;Min_cycle;Max_cycle;Signal;HPM_P1;HPM_P2
2021/05/02 00:00:24;;;;;;;1.55;1.33;;;7.20;78.70;;;;;;5034804;28;20026;-69
2021/05/02 00:02:50;;;;;;;3.22;1.42;;;7.30;78.60;;;;;;5017183;28;20044;-70
2021/05/02 00:05:18;;;;;;;1.63;1.40;;;7.20;78.60;;;;;;5034594;28;20037;-70
2021/05/02 00:07:45;;;;;;;1.92;1.67;;;7.20;78.60;;;;;;5035294;28;20022;-71
2021/05/02 00:10:13;;;;;;;1.85;1.48;;;7.20;78.70;;;;;;5017089;28;20389;-70
2021/05/02 00:12:39;;;;;;;1.48;1.38;;;7.20;78.70;;;;;;5034782;28;20025;-70
2021/05/02 00:15:13;;;;;;;2.13;1.77;;;7.20;78.70;;;;;;5034751;28;20029;-70
2021/05/02 00:17:42;;;;;;;1.90;1.40;;;7.20;78.80;;;;;;5034629;28;20042;-70
2021/05/02 00:20:08;;;;;;;2.53;1.52;;;7.10;78.90;;;;;;5034722;28;20022;-70
2021/05/02 00:22:36;;;;;;;1.90;1.70;;;7.10;79.10;;;;;;5034971;28;20037;-70
2021/05/02 00:25:07;;;;;;;2.10;1.38;;;7.00;79.10;;;;;;5034801;28;20477;-70
2021/05/02 00:27:33;;;;;;;1.40;1.30;;;7.00;79.40;;;;;;5033921;28;20074;-70
2021/05/02 00:29:59;;;;;;;1.75;1.58;;;6.90;79.30;;;;;;5034976;28;20440;-70
2021/05/02 00:32:27;;;;;;;2.28;1.88;;;6.90;79.40;;;;;;5034383;28;20033;-70
2021/05/02 00:34:53;;;;;;;1.95;1.25;;;6.90;79.50;;;;;;5016431;28;20025;-71
2021/05/02 00:37:19;;;;;;;1.70;1.58;;;6.80;79.50;;;;;;5034282;28;20032;-70
2021/05/02 00:39:45;;;;;;;1.80;1.60;;;6.80;79.60;;;;;;5033941;28;20076;-70
2021/05/02 00:42:25;;;;;;;1.50;1.40;;;6.80;79.60;;;;;;5034049;28;20087;-70
2021/05/02 00:45:01;;;;;;;2.42;1.48;;;6.80;79.50;;;;;;5016866;28;20025;-70
2021/05/02 00:47:29;;;;;;;1.27;1.17;;;6.80;79.30;;;;;;5034380;28;20025;-70
2021/05/02 00:50:04;;;;;;;2.35;1.38;;;6.80;79.30;;;;;;5034418;28;20033;-70
2021/05/02 00:52:53;;;;;;;1.80;1.70;;;6.80;79.20;;;;;;5034271;28;20427;-70
2021/05/02 00:55:26;;;;;;;2.03;1.40;;;6.90;79.10;;;;;;5023304;28;20038;-70
2021/05/02 00:58:09;;;;;;;1.08;1.02;;;6.90;79.00;;;;;;5033859;28;20126;-70
2021/05/02 01:00:38;;;;;;;1.30;1.20;;;6.90;79.00;;;;;;5033579;28;20029;-70
2021/05/02 01:03:06;;;;;;;1.40;1.30;;;7.00;79.10;;;;;;5033710;28;20048;-69
2021/05/02 01:05:33;;;;;;;1.55;1.35;;;7.00;79.10;;;;;;5033487;28;20021;-70
2021/05/02 01:08:04;;;;;;;1.67;1.17;;;7.10;79.00;;;;;;5034139;28;20030;-70
2021/05/02 01:10:31;;;;;;;1.92;1.40;;;7.20;78.90;;;;;;5033463;28;20092;-69
2021/05/02 01:13:03;;;;;;;2.22;1.88;;;7.10;78.90;;;;;;5016228;28;20540;-70
2021/05/02 01:15:33;;;;;;;1.70;1.60;;;7.10;79.00;;;;;;5033715;28;20021;-70
2021/05/02 01:18:06;;;;;;;1.60;1.45;;;7.10;79.20;;;;;;5033618;28;20033;-70
2021/05/02 01:20:35;;;;;;;2.30;1.80;;;7.10;79.30;;;;;;5033681;28;20057;-70
2021/05/02 01:23:25;;;;;;;1.55;1.45;;;7.10;79.40;;;;;;5033626;28;20489;-69
2021/05/02 01:25:56;;;;;;;1.92;1.30;;;7.10;79.50;;;;;;5032986;28;20041;-70
2021/05/02 01:28:23;;;;;;;1.67;1.42;;;7.10;79.50;;;;;;5033541;28;20045;-70
2021/05/02 01:30:49;;;;;;;2.05;1.50;;;7.10;79.40;;;;;;5033386;28;20473;-70
2021/05/02 01:33:16;;;;;;;1.33;1.23;;;7.20;79.60;;;;;;5033498;28;20083;-70
2021/05/02 01:35:42;;;;;;;1.38;1.20;;;7.20;79.40;;;;;;5033375;28;20037;-70
2021/05/02 01:38:08;;;;;;;1.52;1.13;;;7.30;79.30;;;;;;5032674;28;20041;-70
2021/05/02 01:40:33;;;;;;;2.13;1.50;;;7.30;79.30;;;;;;5015246;28;20051;-70
2021/05/02 01:42:59;;;;;;;2.20;1.63;;;7.20;79.30;;;;;;5033512;28;20377;-69
2021/05/02 01:45:24;;;;;;;1.25;1.15;;;7.20;79.40;;;;;;5033222;28;20156;-69
2021/05/02 01:47:56;;;;;;;1.67;1.52;;;7.10;80.10;;;;;;5033420;28;20072;-70
2021/05/02 01:50:22;;;;;;;2.05;1.58;;;7.10;79.70;;;;;;5033429;28;20022;-69
2021/05/02 01:52:52;;;;;;;1.05;1.00;;;7.10;79.70;;;;;;5032768;28;20047;-70
2021/05/02 01:55:19;;;;;;;1.23;1.13;;;7.10;79.70;;;;;;5033215;28;20385;-70
2021/05/02 01:57:47;;;;;;;1.23;1.13;;;7.10;79.70;;;;;;5033133;28;20096;-70
2021/05/02 02:00:45;;;;;;;3.17;1.30;;;7.10;79.70;;;;;;5032840;28;20542;-69
2021/05/02 02:03:11;;;;;;;1.45;1.30;;;7.00;79.70;;;;;;5013617;28;20018;-70
2021/05/02 02:05:39;;;;;;;1.27;1.17;;;6.90;79.80;;;;;;5025086;28;20026;-70
2021/05/02 02:08:06;;;;;;;1.30;1.20;;;6.80;80.10;;;;;;5031864;28;20386;-70
2021/05/02 02:10:34;;;;;;;1.60;1.23;;;6.70;80.20;;;;;;5032555;28;20087;-69
2021/05/02 02:13:00;;;;;;;1.30;1.20;;;6.70;80.40;;;;;;5032661;28;20474;-70
2021/05/02 02:15:28;;;;;;;1.38;1.27;;;6.60;81.00;;;;;;5032808;28;20470;-70
2021/05/02 02:17:57;;;;;;;1.42;1.00;;;6.60;80.40;;;;;;5048008;28;20144;-70
2021/05/02 02:20:25;;;;;;;1.20;0.90;;;6.60;80.30;;;;;;5033302;28;20094;-70
2021/05/02 02:22:54;;;;;;;1.30;1.20;;;6.50;80.30;;;;;;5032488;28;20470;-70
2021/05/02 02:25:23;;;;;;;0.90;0.90;;;6.40;80.30;;;;;;5033196;28;20026;-70
2021/05/02 02:27:51;;;;;;;1.58;1.30;;;6.30;80.30;;;;;;5013341;28;20034;-70
2021/05/02 02:30:19;;;;;;;1.48;1.25;;;6.30;80.50;;;;;;5026603;28;20025;-69
2021/05/02 02:32:47;;;;;;;1.17;0.95;;;6.20;80.50;;;;;;5032923;28;20037;-69
2021/05/02 02:35:18;;;;;;;2.47;1.55;;;6.20;80.50;;;;;;5032717;28;20378;-69
2021/05/02 02:37:46;;;;;;;1.48;1.10;;;6.10;80.50;;;;;;5032461;28;20116;-69
2021/05/02 02:40:14;;;;;;;1.13;0.95;;;6.10;80.50;;;;;;5032345;28;20052;-70
2021/05/02 02:42:44;;;;;;;1.42;1.27;;;6.10;80.50;;;;;;5015074;28;20017;-69
2021/05/02 02:45:11;;;;;;;1.23;1.13;;;6.10;80.40;;;;;;5032390;28;20030;-69
2021/05/02 02:47:51;;;;;;;1.20;1.10;;;6.10;80.20;;;;;;5032316;28;20036;-70
2021/05/02 02:50:17;;;;;;;;;;;6.20;80.00;;;;;;5033327;28;20025;-69
2021/05/02 02:52:45;;;;;;;0.85;0.85;;;6.10;79.80;;;;;;5032062;28;19913;-70
2021/05/02 02:55:13;;;;;;;1.42;1.05;;;6.20;79.90;;;;;;5032496;28;20029;-70
2021/05/02 02:58:00;;;;;;;1.67;1.08;;;6.20;79.90;;;;;;5014825;28;20034;-70
2021/05/02 03:00:32;;;;;;;1.20;1.10;;;6.30;79.70;;;;;;5032406;28;20024;-70
2021/05/02 03:03:18;;;;;;;1.60;1.50;;;6.30;79.80;;;;;;5032794;28;20025;-70
2021/05/02 03:05:45;;;;;;;1.27;1.20;;;6.30;79.70;;;;;;5031665;28;20029;-70
2021/05/02 03:08:11;;;;;;;1.48;1.38;;;6.40;79.70;;;;;;5032608;28;20028;-69
2021/05/02 03:10:40;;;;;;;2.17;1.60;;;6.40;80.20;;;;;;5032566;28;20113;-70
2021/05/02 03:13:07;;;;;;;1.23;1.00;;;6.40;79.60;;;;;;5032962;28;20032;-69
2021/05/02 03:15:33;;;;;;;1.45;1.15;;;6.30;79.70;;;;;;5030765;28;20083;-70
2021/05/02 03:18:14;;;;;;;1.15;1.15;;;6.40;79.90;;;;;;5032455;28;20037;-70
2021/05/02 03:20:41;;;;;;;1.45;1.35;;;6.40;80.00;;;;;;5031464;28;20031;-70
2021/05/02 03:23:17;;;;;;;0.95;0.88;;;6.40;80.00;;;;;;5032237;28;20087;-70
2021/05/02 03:25:45;;;;;;;2.80;1.15;;;6.40;79.90;;;;;;5032645;28;20017;-69
2021/05/02 03:28:15;;;;;;;1.35;1.00;;;6.40;80.00;;;;;;5035139;28;20109;-70
2021/05/02 03:30:46;;;;;;;1.98;1.30;;;6.40;80.00;;;;;;5035781;28;20540;-69
2021/05/02 03:33:13;;;;;;;1.20;1.10;;;6.30;80.00;;;;;;5035695;28;20059;-70
2021/05/02 03:35:43;;;;;;;0.93;0.93;;;6.30;80.30;;;;;;5034600;28;20006;-70
2021/05/02 03:38:50;;;;;;;1.13;1.02;;;6.30;80.20;;;;;;5035922;28;20050;-69
2021/05/02 03:41:17;;;;;;;0.90;0.88;;;6.40;80.20;;;;;;5033442;28;20056;-70
2021/05/02 03:43:43;;;;;;;0.95;0.95;;;6.40;80.10;;;;;;5017980;28;20025;-70
2021/05/02 03:46:23;;;;;;;0.98;0.98;;;6.40;80.00;;;;;;5035349;28;20528;-70
2021/05/02 03:48:59;;;;;;;;;;;6.40;79.90;;;;;;5035472;28;20026;-70
2021/05/02 03:51:26;;;;;;;0.80;0.80;;;6.40;79.70;;;;;;5032489;28;19996;-69
2021/05/02 03:53:53;;;;;;;0.90;0.90;;;6.40;79.90;;;;;;5035357;28;20025;-69
2021/05/02 03:56:33;;;;;;;0.77;0.77;;;6.30;79.90;;;;;;5034959;28;20022;-69
2021/05/02 03:59:14;;;;;;;1.00;1.00;;;6.20;80.10;;;;;;5035408;28;20037;-70
2021/05/02 04:01:41;;;;;;;1.80;1.00;;;6.10;80.40;;;;;;5035225;28;20056;-70
2021/05/02 04:04:10;;;;;;;2.53;1.23;;;6.00;80.70;;;;;;5034648;28;20030;-70
2021/05/02 04:06:36;;;;;;;1.70;1.10;;;5.90;80.80;;;;;;5034755;28;20040;-69
2021/05/02 04:09:09;;;;;;;1.52;1.42;;;5.90;80.80;;;;;;5035110;28;20100;-70
2021/05/02 04:11:34;;;;;;;0.70;0.70;;;5.90;80.80;;;;;;5035389;28;20037;-70
2021/05/02 04:14:02;;;;;;;1.85;1.25;;;5.90;80.80;;;;;;5034882;28;20101;-70
2021/05/02 04:16:28;;;;;;;1.63;1.27;;;5.90;80.80;;;;;;5034615;28;20470;-70
2021/05/02 04:18:54;;;;;;;2.40;1.50;;;5.80;80.80;;;;;;5034441;28;20027;-69
2021/05/02 04:21:19;;;;;;;1.02;0.95;;;5.80;80.90;;;;;;5034859;28;20060;-70
2021/05/02 04:23:45;;;;;;;0.95;0.85;;;5.70;81.00;;;;;;5034797;28;20487;-70
2021/05/02 04:26:10;;;;;;;1.35;1.17;;;5.60;81.20;;;;;;5034933;28;20114;-70
2021/05/02 04:28:36;;;;;;;2.08;1.10;;;5.60;81.20;;;;;;5035012;28;20032;-69
2021/05/02 04:31:01;;;;;;;1.38;1.17;;;5.70;81.10;;;;;;5034621;28;20021;-70
2021/05/02 04:33:27;;;;;;;0.80;0.80;;;5.70;81.10;;;;;;5034018;28;20083;-70
2021/05/02 04:35:52;;;;;;;1.58;1.33;;;5.70;81.00;;;;;;5034371;28;20225;-70
2021/05/02 04:38:18;;;;;;;1.85;1.33;;;5.70;81.00;;;;;;5034808;28;20076;-70
2021/05/02 04:40:43;;;;;;;0.77;0.77;;;5.70;81.00;;;;;;5034005;28;20046;-70
2021/05/02 04:43:10;;;;;;;0.70;0.70;;;5.60;81.00;;;;;;5034415;28;20034;-70
2021/05/02 04:45:36;;;;;;;0.90;0.90;;;5.60;81.00;;;;;;5034366;28;20477;-69
2021/05/02 04:48:03;;;;;;;1.00;0.80;;;5.60;81.10;;;;;;5034173;28;20087;-69
2021/05/02 04:50:29;;;;;;;1.10;1.05;;;5.60;81.20;;;;;;5034350;28;20033;-69
2021/05/02 04:52:54;;;;;;;1.38;0.93;;;5.60;81.20;;;;;;5016777;28;20026;-70
2021/05/02 04:55:20;;;;;;;1.20;1.10;;;5.50;81.20;;;;;;5034062;28;20026;-70
2021/05/02 04:57:45;;;;;;;0.70;0.65;;;5.60;81.30;;;;;;5034339;28;20108;-70
2021/05/02 05:00:11;;;;;;;2.20;1.10;;;5.50;81.10;;;;;;5033883;28;20417;-70
2021/05/02 05:02:37;;;;;;;1.10;1.00;;;5.50;81.10;;;;;;5033431;28;20040;-69
2021/05/02 05:05:02;;;;;;;1.25;1.00;;;5.50;81.10;;;;;;5033688;28;20071;-70
2021/05/02 05:07:28;;;;;;;1.00;1.00;;;5.50;81.10;;;;;;5033949;28;20358;-69
2021/05/02 05:09:53;;;;;;;1.10;1.10;;;5.50;81.10;;;;;;5034028;28;20128;-70
2021/05/02 05:12:19;;;;;;;1.05;0.90;;;5.60;81.20;;;;;;5034027;28;20036;-70
2021/05/02 05:14:44;;;;;;;1.00;1.00;;;5.60;81.40;;;;;;5033521;28;20022;-70
2021/05/02 05:17:10;;;;;;;1.00;1.00;;;5.70;80.90;;;;;;5032807;28;20485;-70
2021/05/02 05:19:35;;;;;;;0.73;0.70;;;5.70;81.00;;;;;;5033755;28;20033;-68
2021/05/02 05:22:02;;;;;;;0.75;0.75;;;5.70;80.90;;;;;;5033955;28;20032;-68
2021/05/02 05:24:28;;;;;;;1.13;1.08;;;5.70;80.80;;;;;;5033621;28;20104;-69
2021/05/02 05:26:53;;;;;;;1.30;1.20;;;5.80;80.90;;;;;;5033768;28;20224;-69
2021/05/02 05:29:19;;;;;;;1.48;1.38;;;5.80;80.90;;;;;;5033615;28;20018;-69
2021/05/02 05:31:44;;;;;;;1.05;1.05;;;5.80;80.90;;;;;;5032634;28;20038;-69
2021/05/02 05:34:10;;;;;;;0.80;0.80;;;5.80;80.90;;;;;;5033520;28;20021;-69
2021/05/02 05:36:36;;;;;;;1.02;0.98;;;5.80;80.90;;;;;;5033156;28;20029;-68
2021/05/02 05:39:01;;;;;;;2.45;1.17;;;5.80;81.00;;;;;;5032762;28;20021;-69
2021/05/02 05:41:27;;;;;;;1.10;1.05;;;5.80;81.10;;;;;;5033617;28;20032;-69
2021/05/02 05:43:52;;;;;;;1.10;1.00;;;5.90;81.10;;;;;;5033417;28;20029;-69
2021/05/02 05:46:17;;;;;;;0.85;0.80;;;5.90;81.00;;;;;;5032103;28;20025;-70
2021/05/02 05:48:43;;;;;;;1.20;1.10;;;5.90;81.00;;;;;;5033052;28;20443;-69
2021/05/02 05:51:09;;;;;;;1.08;1.08;;;6.00;80.90;;;;;;5032803;28;20033;-70
2021/05/02 05:53:36;;;;;;;1.00;1.00;;;6.10;80.90;;;;;;5032820;28;20017;-69
2021/05/02 05:56:01;;;;;;;1.95;1.48;;;6.10;80.80;;;;;;5032140;28;20112;-69
2021/05/02 05:58:29;;;;;;;1.60;1.30;;;6.20;80.80;;;;;;5033255;28;20120;-69
2021/05/02 06:00:56;;;;;;;1.15;1.00;;;6.30;80.70;;;;;;5032747;28;20029;-69
2021/05/02 06:03:21;;;;;;;1.30;1.20;;;6.40;80.70;;;;;;5033094;28;20113;-69
2021/05/02 06:05:47;;;;;;;0.90;0.90;;;6.50;80.60;;;;;;5033338;28;20068;-68
2021/05/02 06:08:12;;;;;;;2.38;1.38;;;6.60;80.60;;;;;;5033299;28;20064;-70
2021/05/02 06:10:38;;;;;;;1.67;1.17;;;6.70;80.40;;;;;;5032774;28;20017;-69
2021/05/02 06:13:03;;;;;;;1.80;1.10;;;6.70;80.30;;;;;;5031913;28;20486;-69
2021/05/02 06:15:29;;;;;;;1.30;1.20;;;6.80;80.30;;;;;;5032039;28;20104;-67
2021/05/02 06:17:54;;;;;;;2.30;1.20;;;6.90;80.30;;;;;;5033118;28;20116;-67
2021/05/02 06:20:20;;;;;;;1.17;1.08;;;6.90;80.30;;;;;;5032950;28;20017;-68
2021/05/02 06:22:45;;;;;;;2.25;2.05;;;7.00;80.20;;;;;;5033135;28;20030;-70
2021/05/02 06:25:12;;;;;;;1.58;1.40;;;7.10;80.20;;;;;;5033180;28;20022;-71
2021/05/02 06:27:37;;;;;;;1.73;1.63;;;7.20;80.00;;;;;;5032666;28;20025;-70
2021/05/02 06:30:06;;;;;;;1.40;1.30;;;7.30;80.00;;;;;;5032086;28;20112;-70
2021/05/02 06:32:32;;;;;;;1.42;1.23;;;7.40;80.00;;;;;;4999023;28;20408;-70
2021/05/02 06:34:58;;;;;;;1.33;1.20;;;7.40;80.00;;;;;;5032685;28;20470;-71
2021/05/02 06:37:25;;;;;;;1.90;1.40;;;7.50;80.00;;;;;;5032902;28;20033;-70
2021/05/02 06:39:51;;;;;;;2.78;1.35;;;7.60;80.00;;;;;;5032654;28;20048;-70
2021/05/02 06:42:17;;;;;;;2.08;1.42;;;7.60;79.90;;;;;;5015189;28;20105;-71
2021/05/02 06:44:42;;;;;;;2.30;1.58;;;7.70;79.90;;;;;;5032517;28;20071;-71
2021/05/02 06:47:08;;;;;;;2.20;1.30;;;7.70;79.80;;;;;;5032939;28;20026;-71
2021/05/02 06:49:33;;;;;;;2.25;1.50;;;7.80;79.80;;;;;;5032480;28;20104;-71
2021/05/02 06:51:59;;;;;;;2.13;1.90;;;7.90;79.70;;;;;;5031992;28;20047;-70
2021/05/02 06:54:24;;;;;;;1.50;1.40;;;7.90;79.60;;;;;;5032726;28;20424;-71
2021/05/02 06:56:50;;;;;;;1.77;1.33;;;8.00;79.60;;;;;;5031738;28;20524;-71
2021/05/02 06:59:16;;;;;;;1.30;1.20;;;8.00;79.30;;;;;;5032750;28;20026;-72
2021/05/02 07:01:42;;;;;;;1.92;1.40;;;8.10;79.30;;;;;;5033088;28;20022;-70
2021/05/02 07:04:08;;;;;;;1.67;1.45;;;8.20;79.10;;;;;;5018768;28;20071;-70
2021/05/02 07:06:34;;;;;;;1.83;1.35;;;8.30;79.10;;;;;;5035868;28;20013;-71
2021/05/02 07:09:00;;;;;;;1.10;1.02;;;8.40;79.70;;;;;;5036415;28;20037;-70
2021/05/02 07:11:25;;;;;;;2.03;1.70;;;8.50;78.70;;;;;;5036089;28;20014;-71
2021/05/02 07:13:51;;;;;;;1.20;1.10;;;8.70;78.40;;;;;;5036382;28;20029;-71
2021/05/02 07:16:18;;;;;;;1.67;1.23;;;8.90;78.30;;;;;;5036286;28;20017;-71
2021/05/02 07:18:44;;;;;;;1.30;1.13;;;9.00;77.70;;;;;;5036398;28;20212;-71
2021/05/02 07:21:09;;;;;;;1.92;1.50;;;9.00;77.50;;;;;;5036115;28;20300;-70
2021/05/02 07:23:45;;;;;;;1.42;1.33;;;9.10;77.60;;;;;;5035792;28;20473;-71
2021/05/02 07:26:11;;;;;;;2.90;2.05;;;9.10;77.60;;;;;;5035691;28;20060;-70
2021/05/02 07:28:36;;;;;;;1.45;1.35;;;9.20;77.60;;;;;;5035652;28;20033;-71
2021/05/02 07:31:02;;;;;;;1.77;1.15;;;9.30;77.10;;;;;;5036086;28;20053;-70
2021/05/02 07:33:27;;;;;;;2.90;2.05;;;9.30;76.80;;;;;;5035873;28;20025;-71
2021/05/02 07:35:56;;;;;;;1.63;1.50;;;9.20;76.80;;;;;;5035803;28;20033;-70
2021/05/02 07:38:22;;;;;;;3.42;2.10;;;9.10;77.00;;;;;;5035777;28;20033;-71
2021/05/02 07:40:49;;;;;;;2.47;1.38;;;9.00;77.10;;;;;;5035362;28;20075;-71
2021/05/02 07:43:15;;;;;;;2.75;2.55;;;9.10;77.20;;;;;;5035877;28;20017;-71
2021/05/02 07:45:41;;;;;;;1.70;1.60;;;9.10;76.50;;;;;;5035967;28;20053;-71
2021/05/02 07:48:06;;;;;;;1.27;1.17;;;9.10;76.60;;;;;;5035650;28;20493;-71
2021/05/02 07:50:32;;;;;;;1.55;1.40;;;9.10;76.70;;;;;;5035613;28;20032;-71
2021/05/02 07:52:58;;;;;;;2.03;1.58;;;9.30;76.40;;;;;;5017985;28;20056;-72
2021/05/02 07:55:23;;;;;;;1.40;1.30;;;9.40;75.80;;;;;;5035259;28;20022;-71
2021/05/02 07:57:49;;;;;;;1.40;1.30;;;9.40;75.60;;;;;;5035367;28;20034;-71
2021/05/02 08:00:18;;;;;;;2.35;1.70;;;9.50;75.60;;;;;;5035523;28;20156;-71
2021/05/02 08:02:44;;;;;;;;;;;9.60;75.10;;;;;;5035899;28;20410;-71
2021/05/02 08:05:10;;;;;;;1.92;1.05;;;9.60;75.40;;;;;;5035542;28;19951;-71
2021/05/02 08:07:35;;;;;;;2.10;1.65;;;9.60;75.20;;;;;;5017505;28;20119;-70
2021/05/02 08:10:02;;;;;;;1.35;1.25;;;9.70;74.20;;;;;;5034775;28;20041;-71
2021/05/02 08:12:28;;;;;;;1.73;1.40;;;9.60;74.60;;;;;;5034495;28;20021;-71
2021/05/02 08:14:53;;;;;;;1.65;1.40;;;9.70;74.20;;;;;;5035500;28;20032;-70
2021/05/02 08:17:19;;;;;;;1.88;1.60;;;9.90;73.60;;;;;;5035001;28;20033;-71
2021/05/02 08:19:44;;;;;;;1.52;1.40;;;9.90;73.40;;;;;;5035062;28;20381;-72
2021/05/02 08:22:10;;;;;;;2.25;1.45;;;10.00;72.80;;;;;;5034945;28;20466;-71
2021/05/02 08:24:35;;;;;;;2.03;1.63;;;10.00;72.90;;;;;;5016672;28;20076;-71
2021/05/02 08:27:01;;;;;;;1.48;1.38;;;9.90;73.10;;;;;;5035052;28;20072;-72
2021/05/02 08:29:26;;;;;;;2.33;1.90;;;9.80;73.10;;;;;;5035170;28;20021;-71
2021/05/02 08:31:52;;;;;;;1.17;1.10;;;9.60;73.20;;;;;;5034907;28;20022;-71
2021/05/02 08:34:18;;;;;;;1.25;1.15;;;9.50;73.50;;;;;;5034986;28;20032;-71
2021/05/02 08:36:43;;;;;;;2.20;1.40;;;9.60;73.60;;;;;;5034574;28;20104;-72
2021/05/02 08:39:09;;;;;;;2.42;1.15;;;9.80;72.70;;;;;;5034278;28;20124;-71
2021/05/02 08:41:34;;;;;;;1.40;1.30;;;9.90;72.50;;;;;;5034734;28;20180;-71
2021/05/02 08:44:02;;;;;;;1.88;1.08;;;10.10;72.20;;;;;;5034748;28;20025;-72
2021/05/02 08:46:29;;;;;;;1.40;1.30;;;10.10;71.90;;;;;;5034470;28;20018;-71
2021/05/02 08:48:55;;;;;;;1.30;1.10;;;10.10;72.10;;;;;;5034627;28;20017;-71
2021/05/02 08:51:21;;;;;;;1.02;0.93;;;10.10;72.30;;;;;;5034476;28;20049;-71
2021/05/02 08:53:46;;;;;;;0.60;0.60;;;10.20;72.20;;;;;;5033782;28;20060;-71
2021/05/02 08:56:12;;;;;;;0.65;0.65;;;10.30;71.80;;;;;;5034410;28;20034;-71
2021/05/02 08:58:38;;;;;;;1.05;0.82;;;10.40;71.70;;;;;;5034177;28;20033;-71
2021/05/02 09:01:04;;;;;;;0.98;0.70;;;10.30;71.80;;;;;;5034377;28;20018;-71
2021/05/02 09:03:42;;;;;;;0.77;0.77;;;10.20;71.80;;;;;;5016579;28;20025;-71
2021/05/02 09:06:35;;;;;;;1.70;1.20;;;10.30;71.90;;;;;;5016346;28;20029;-72
2021/05/02 09:09:04;;;;;;;2.08;1.90;;;10.30;71.20;;;;;;5031457;28;20045;-71
2021/05/02 09:11:37;;;;;;;1.20;1.10;;;10.30;71.30;;;;;;5034199;28;20021;-71
2021/05/02 09:14:05;;;;;;;0.90;0.90;;;10.30;71.20;;;;;;5034210;28;20029;-72
2021/05/02 09:16:54;;;;;;;0.98;0.98;;;10.30;71.20;;;;;;5016061;28;20031;-71
2021/05/02 09:19:21;;;;;;;0.63;0.63;;;10.40;70.70;;;;;;5033978;28;20049;-71
2021/05/02 09:21:48;;;;;;;0.90;0.90;;;10.60;70.60;;;;;;5016129;28;20025;-72
2021/05/02 09:24:25;;;;;;;1.45;1.10;;;10.70;70.40;;;;;;5033584;28;20026;-71
2021/05/02 09:27:03;;;;;;;1.52;1.00;;;10.80;70.00;;;;;;5016102;28;20049;-71
2021/05/02 09:29:31;;;;;;;1.08;1.00;;;10.80;69.40;;;;;;5033628;28;20021;-71
2021/05/02 09:31:57;;;;;;;0.77;0.70;;;11.00;69.70;;;;;;5033790;28;20421;-71
2021/05/02 09:34:23;;;;;;;1.48;1.25;;;11.20;69.10;;;;;;5033836;28;20049;-72
2021/05/02 09:36:51;;;;;;;1.10;1.00;;;11.40;68.70;;;;;;5033130;28;20056;-71
2021/05/02 09:39:38;;;;;;;1.25;0.85;;;11.20;68.80;;;;;;5033535;28;20068;-71
2021/05/02 09:42:06;;;;;;;0.88;0.80;;;11.20;69.10;;;;;;5033568;28;20056;-71
2021/05/02 09:44:44;;;;;;;1.15;1.05;;;11.30;69.00;;;;;;5033550;28;20025;-71
2021/05/02 09:47:34;;;;;;;1.05;0.70;;;11.40;68.80;;;;;;5033499;28;20029;-71
2021/05/02 09:50:09;;;;;;;1.02;0.95;;;11.40;68.50;;;;;;5033519;28;20493;-71
2021/05/02 09:52:54;;;;;;;1.00;0.95;;;11.50;68.60;;;;;;5032984;28;20032;-71
2021/05/02 09:55:24;;;;;;;1.92;0.70;;;11.70;68.20;;;;;;5015684;28;20032;-71
2021/05/02 09:58:16;;;;;;;;;;;11.50;68.20;;;;;;5033749;28;20038;-71
2021/05/02 10:00:43;;;;;;;0.90;0.90;;;11.30;69.70;;;;;;5033342;28;20096;-71
2021/05/02 10:03:14;;;;;;;1.17;1.13;;;11.00;69.60;;;;;;5033277;28;20022;-71
2021/05/02 10:06:01;;;;;;;0.80;0.80;;;11.00;69.50;;;;;;5032801;28;20048;-71
2021/05/02 10:08:28;;;;;;;0.50;0.50;;;11.00;69.10;;;;;;5033296;28;20040;-71
2021/05/02 10:10:57;;;;;;;0.90;0.70;;;10.90;69.40;;;;;;5033159;28;20100;-71
2021/05/02 10:13:24;;;;;;;0.52;0.52;;;10.90;69.40;;;;;;5033206;28;20021;-72
2021/05/02 10:15:50;;;;;;;0.93;0.60;;;10.90;69.40;;;;;;5033019;28;20028;-71
2021/05/02 10:18:16;;;;;;;1.40;1.05;;;10.70;69.40;;;;;;5033149;28;20038;-71
2021/05/02 10:20:43;;;;;;;0.65;0.52;;;10.70;69.50;;;;;;5014818;28;20032;-71
2021/05/02 10:23:10;;;;;;;1.00;0.68;;;10.80;69.30;;;;;;5033039;28;20036;-72
2021/05/02 10:25:40;;;;;;;0.70;0.70;;;10.80;69.10;;;;;;5033179;28;20029;-71
2021/05/02 10:28:06;;;;;;;0.70;0.70;;;10.90;68.70;;;;;;5032890;28;20112;-72
2021/05/02 10:30:40;;;;;;;0.47;0.47;;;11.00;68.50;;;;;;5032970;28;20013;-71
2021/05/02 10:33:09;;;;;;;1.27;1.08;;;10.90;68.40;;;;;;5033067;28;20502;-72
2021/05/02 10:35:42;;;;;;;0.70;0.65;;;10.90;68.50;;;;;;5033010;28;20032;-72
2021/05/02 10:38:10;;;;;;;1.00;0.90;;;10.90;68.60;;;;;;5036942;28;20066;-71
2021/05/02 10:40:37;;;;;;;0.85;0.85;;;11.00;68.20;;;;;;5036698;28;20042;-71
2021/05/02 10:43:05;;;;;;;0.70;0.70;;;11.10;68.10;;;;;;5036945;28;20060;-71
2021/05/02 10:45:31;;;;;;;2.27;0.90;;;11.20;68.00;;;;;;5037055;28;20022;-71
2021/05/02 10:48:01;;;;;;;0.93;0.85;;;11.30;67.70;;;;;;5036968;28;20109;-72
2021/05/02 10:50:35;;;;;;;0.70;0.70;;;11.20;67.50;;;;;;5036281;28;20026;-72
2021/05/02 10:53:04;;;;;;;0.55;0.55;;;11.20;67.80;;;;;;5036880;28;20059;-71
2021/05/02 10:55:49;;;;;;;0.65;0.65;;;11.20;68.00;;;;;;5036859;28;20076;-70
2021/05/02 10:58:20;;;;;;;0.50;0.50;;;11.40;67.60;;;;;;5018826;28;20452;-72
2021/05/02 11:01:05;;;;;;;0.68;0.68;;;11.30;67.50;;;;;;5018972;28;20393;-71
2021/05/02 11:03:39;;;;;;;1.08;0.50;;;11.40;67.70;;;;;;5036214;28;20108;-71
2021/05/02 11:06:40;;;;;;;0.57;0.57;;;11.60;67.40;;;;;;5036563;28;20025;-71
2021/05/02 11:09:10;;;;;;;0.63;0.57;;;11.80;66.80;;;;;;4975700;28;20039;-70
2021/05/02 11:11:42;;;;;;;0.40;0.40;;;12.00;66.50;;;;;;4975459;28;20075;-71
2021/05/02 11:14:12;;;;;;;0.68;0.68;;;12.40;66.00;;;;;;4975563;28;20046;-72
2021/05/02 11:16:43;;;;;;;0.55;0.55;;;12.50;65.60;;;;;;4975530;28;20472;-71
2021/05/02 11:19:35;;;;;;;0.43;0.43;;;12.40;65.60;;;;;;4974998;28;20143;-72
2021/05/02 11:22:10;;;;;;;1.45;0.65;;;12.40;65.80;;;;;;4972592;28;20049;-71
2021/05/02 11:24:49;;;;;;;1.38;1.02;;;12.20;65.50;;;;;;4975504;28;20027;-72
2021/05/02 11:27:46;;;;;;;1.42;1.33;;;12.00;65.20;;;;;;4975227;28;20193;-72
2021/05/02 11:30:15;;;;;;;1.20;0.88;;;11.60;65.50;;;;;;4975311;28;20073;-71
2021/05/02 11:32:43;;;;;;;0.60;0.60;;;11.70;66.00;;;;;;4974865;28;20039;-71
2021/05/02 11:35:16;;;;;;;0.52;0.52;;;11.90;65.30;;;;;;4975168;28;20026;-71
2021/05/02 11:38:03;;;;;;;0.70;0.70;;;12.00;65.20;;;;;;4975003;28;20097;-71
2021/05/02 11:40:31;;;;;;;0.60;0.60;;;12.20;64.90;;;;;;4974736;28;20236;-71
2021/05/02 11:43:11;;;;;;;0.57;0.57;;;12.50;64.20;;;;;;4974959;28;20042;-71
2021/05/02 11:45:52;;;;;;;0.65;0.65;;;12.60;64.10;;;;;;4998587;28;20474;-71
2021/05/02 11:48:17;;;;;;;0.63;0.60;;;12.40;64.30;;;;;;5016720;28;20017;-71
2021/05/02 11:50:44;;;;;;;0.68;0.68;;;12.20;64.80;;;;;;5035783;28;20059;-72
2021/05/02 11:53:10;;;;;;;0.65;0.60;;;12.20;64.90;;;;;;5017899;28;20056;-71
2021/05/02 11:55:39;;;;;;;0.98;0.60;;;12.10;65.00;;;;;;5035641;28;20026;-72
2021/05/02 11:58:11;;;;;;;0.70;0.70;;;12.00;65.10;;;;;;5035649;28;20144;-72
2021/05/02 12:00:45;;;;;;;0.80;0.80;;;11.90;65.40;;;;;;5035657;28;20021;-71
2021/05/02 12:03:14;;;;;;;0.55;0.55;;;11.80;65.40;;;;;;5035133;28;20033;-72
2021/05/02 12:05:50;;;;;;;0.50;0.50;;;11.70;65.40;;;;;;5035321;28;20482;-71
2021/05/02 12:08:18;;;;;;;0.70;0.70;;;12.00;65.40;;;;;;5035387;28;20071;-73
2021/05/02 12:10:44;;;;;;;1.50;1.10;;;12.50;63.90;;;;;;5035357;28;20033;-71
2021/05/02 12:13:28;;;;;;;0.70;0.70;;;12.80;63.40;;;;;;5035325;28;20052;-72
2021/05/02 12:16:12;;;;;;;1.85;1.10;;;13.40;62.80;;;;;;5016935;28;20029;-71
2021/05/02 12:18:41;;;;;;;0.73;0.70;;;13.90;61.90;;;;;;5035098;28;20109;-72
2021/05/02 12:21:18;;;;;;;0.55;0.55;;;14.40;61.40;;;;;;5035452;28;20454;-71
2021/05/02 12:23:45;;;;;;;0.60;0.60;;;14.20;61.00;;;;;;5035075;28;20025;-72
2021/05/02 12:26:12;;;;;;;0.68;0.68;;;13.70;62.00;;;;;;5035071;28;20022;-72
2021/05/02 12:28:39;;;;;;;0.60;0.60;;;13.40;62.80;;;;;;5035073;28;20022;-72
2021/05/02 12:31:05;;;;;;;0.65;0.63;;;13.30;63.00;;;;;;5034583;28;20481;-71
2021/05/02 12:33:40;;;;;;;0.70;0.70;;;13.80;62.60;;;;;;5034921;28;20148;-71
2021/05/02 12:36:08;;;;;;;2.15;1.63;;;14.50;61.10;;;;;;5017118;28;20120;-72
2021/05/02 12:38:34;;;;;;;0.88;0.85;;;14.90;60.30;;;;;;5034753;28;20026;-71
2021/05/02 12:41:00;;;;;;;0.70;0.70;;;15.40;60.10;;;;;;5016805;28;20136;-71
2021/05/02 12:43:32;;;;;;;0.80;0.80;;;16.10;58.80;;;;;;5034814;28;20156;-71
2021/05/02 12:45:59;;;;;;;0.60;0.60;;;16.00;58.40;;;;;;5016633;28;20022;-71
2021/05/02 12:48:26;;;;;;;1.55;0.63;;;15.10;59.60;;;;;;5016822;28;20021;-72
2021/05/02 12:50:54;;;;;;;0.70;0.70;;;14.20;60.70;;;;;;5034583;28;20021;-71
2021/05/02 12:53:19;;;;;;;0.50;0.50;;;13.20;62.60;;;;;;5034569;28;20478;-72
2021/05/02 12:55:53;;;;;;;0.80;0.80;;;12.50;63.80;;;;;;5033094;28;20021;-71
2021/05/02 12:58:36;;;;;;;0.77;0.77;;;12.20;64.00;;;;;;5016645;28;20394;-71
2021/05/02 13:01:09;;;;;;;0.63;0.63;;;11.90;64.40;;;;;;5015366;28;20028;-72
2021/05/02 13:03:40;;;;;;;1.02;1.00;;;12.00;64.00;;;;;;5034224;28;20032;-72
2021/05/02 13:06:11;;;;;;;1.05;0.75;;;12.60;63.40;;;;;;5034285;28;20112;-74